createdAt,value
2019-04-29T00:02:25.372Z,21.00
2019-04-29T00:05:31.125Z,21.00
2019-04-29T00:08:36.886Z,21.00
2019-04-29T00:11:42.740Z,21.00
2019-04-29T00:14:56.940Z,21.00
2019-04-29T00:18:06.908Z,21.00
2019-04-29T00:21:12.601Z,21.00
2019-04-29T00:24:19.260Z,21.00
2019-04-29T00:27:24.912Z,20.90
2019-04-29T00:30:30.584Z,21.00
2019-04-29T00:33:36.483Z,20.90
2019-04-29T00:37:06.721Z,20.90
2019-04-29T00:40:38.757Z,20.90
2019-04-29T00:43:52.029Z,20.90
2019-04-29T00:46:59.044Z,20.90
2019-04-29T00:50:05.007Z,20.90
2019-04-29T00:53:11.998Z,20.90
2019-04-29T00:56:17.745Z,20.90
2019-04-29T00:59:23.443Z,20.90
2019-04-29T01:02:29.400Z,20.80
2019-04-29T01:05:35.312Z,20.90
2019-04-29T01:08:40.859Z,20.90
2019-04-29T01:11:46.622Z,20.90
2019-04-29T01:14:52.538Z,20.90
2019-04-29T01:17:59.138Z,20.90
2019-04-29T01:21:04.812Z,20.80
2019-04-29T01:24:10.603Z,20.80
2019-04-29T01:27:20.604Z,20.80
2019-04-29T01:31:04.127Z,20.80
2019-04-29T01:34:20.637Z,20.80
2019-04-29T01:37:45.207Z,20.80
2019-04-29T01:40:58.361Z,20.80
2019-04-29T01:44:05.371Z,20.80
2019-04-29T01:47:11.030Z,20.80
2019-04-29T01:50:16.666Z,20.80
2019-04-29T01:53:22.341Z,20.70
2019-04-29T01:56:28.259Z,20.80
2019-04-29T01:59:33.950Z,20.70
2019-04-29T02:02:39.697Z,20.70
2019-04-29T02:05:46.462Z,20.70
2019-04-29T02:08:54.020Z,20.70
2019-04-29T02:11:59.631Z,20.70
2019-04-29T02:15:06.328Z,20.70
2019-04-29T02:18:11.994Z,20.70
2019-04-29T02:21:17.925Z,20.70
2019-04-29T02:24:23.577Z,20.70
2019-04-29T02:27:29.229Z,20.70
2019-04-29T02:30:42.543Z,20.70
2019-04-29T02:33:48.205Z,20.70
2019-04-29T02:36:53.861Z,20.70
2019-04-29T02:40:05.695Z,20.70
2019-04-29T02:43:19.570Z,20.60
2019-04-29T02:46:25.248Z,20.70
2019-04-29T02:49:31.947Z,20.70
2019-04-29T02:52:37.597Z,20.60
2019-04-29T02:55:47.381Z,20.60
2019-04-29T02:58:59.521Z,20.60
2019-04-29T03:02:24.081Z,20.60
2019-04-29T03:05:34.731Z,20.60
2019-04-29T03:08:41.507Z,20.60
2019-04-29T03:11:47.231Z,20.60
2019-04-29T03:14:52.998Z,20.60
2019-04-29T03:17:58.975Z,20.60
2019-04-29T03:21:14.514Z,20.60
2019-04-29T03:24:21.905Z,20.60
2019-04-29T03:27:29.266Z,20.60
2019-04-29T03:30:36.734Z,20.60
2019-04-29T03:33:42.486Z,20.60
2019-04-29T03:36:48.118Z,20.50
2019-04-29T03:39:53.769Z,20.60
2019-04-29T03:42:59.423Z,20.60
2019-04-29T03:46:05.092Z,20.50
2019-04-29T03:49:11.798Z,20.50
2019-04-29T03:52:17.513Z,20.50
2019-04-29T03:55:38.184Z,20.50
2019-04-29T03:58:30.573Z,20.50
2019-04-29T04:01:53.198Z,20.50
2019-04-29T04:05:16.462Z,20.50
2019-04-29T04:08:26.560Z,20.50
2019-04-29T04:11:32.179Z,20.50
2019-04-29T04:14:37.925Z,20.50
2019-04-29T04:17:58.895Z,20.50
2019-04-29T04:21:04.723Z,20.50
2019-04-29T04:24:10.368Z,20.40
2019-04-29T04:27:16.005Z,20.50
2019-04-29T04:30:21.962Z,20.50
2019-04-29T04:33:27.611Z,20.40
2019-04-29T04:36:33.275Z,20.50
2019-04-29T04:39:40.546Z,20.50
2019-04-29T04:42:46.276Z,20.60
2019-04-29T04:45:53.712Z,20.60
2019-04-29T04:48:59.492Z,20.70
2019-04-29T04:52:05.126Z,20.70
2019-04-29T04:55:11.437Z,20.70
2019-04-29T04:58:18.162Z,20.70
2019-04-29T05:01:23.857Z,20.80
2019-04-29T05:04:29.489Z,20.80
2019-04-29T05:07:35.334Z,20.70
2019-04-29T05:10:41.120Z,20.80
2019-04-29T05:13:46.778Z,20.80
2019-04-29T05:16:52.541Z,20.80
2019-04-29T05:19:58.269Z,20.80
2019-04-29T05:23:04.162Z,20.80
2019-04-29T05:26:10.890Z,20.80
2019-04-29T05:29:16.681Z,20.80
2019-04-29T05:32:22.349Z,20.80
2019-04-29T05:35:40.084Z,20.80
2019-04-29T05:38:57.401Z,20.80
2019-04-29T05:42:03.020Z,20.80
2019-04-29T05:45:20.229Z,20.80
2019-04-29T05:48:27.610Z,20.80
2019-04-29T05:51:45.656Z,20.80
2019-04-29T05:54:51.358Z,20.80
2019-04-29T05:58:11.449Z,20.80
2019-04-29T06:01:21.011Z,20.80
2019-04-29T06:04:28.629Z,20.80
2019-04-29T06:07:34.018Z,20.80
2019-04-29T06:10:42.028Z,20.80
2019-04-29T06:13:47.082Z,20.80
2019-04-29T06:16:53.064Z,20.80
2019-04-29T06:19:58.844Z,20.80
2019-04-29T06:23:04.549Z,20.90
2019-04-29T06:26:11.234Z,20.90
2019-04-29T06:29:16.909Z,20.90
2019-04-29T06:32:24.904Z,20.90
2019-04-29T06:35:30.890Z,20.90
2019-04-29T06:38:36.529Z,20.80
2019-04-29T06:41:45.106Z,20.80
2019-04-29T06:44:51.177Z,20.80
2019-04-29T06:47:58.568Z,20.80
2019-04-29T06:51:04.390Z,20.80
2019-04-29T06:54:09.990Z,20.80
2019-04-29T06:57:15.661Z,20.90
2019-04-29T07:00:22.227Z,20.80
2019-04-29T07:03:28.716Z,20.80
2019-04-29T07:06:34.365Z,20.80
2019-04-29T07:09:40.043Z,20.80
2019-04-29T07:12:49.019Z,20.80
2019-04-29T07:15:54.709Z,20.80
2019-04-29T07:19:05.750Z,20.80
2019-04-29T07:22:11.438Z,20.80
2019-04-29T07:25:17.905Z,20.80
2019-04-29T07:28:26.184Z,20.80
2019-04-29T07:31:33.330Z,20.80
2019-04-29T07:34:39.688Z,20.80
2019-04-29T07:37:47.050Z,20.80
2019-04-29T07:40:54.452Z,20.80
2019-04-29T07:44:01.817Z,20.90
2019-04-29T07:47:07.485Z,20.80
2019-04-29T07:50:13.474Z,20.80
2019-04-29T07:53:20.935Z,20.80
2019-04-29T07:56:28.150Z,20.80
2019-04-29T07:59:38.168Z,20.80
2019-04-29T08:02:41.190Z,20.70
2019-04-29T08:05:47.153Z,20.70
2019-04-29T08:08:55.059Z,20.80
2019-04-29T08:12:00.329Z,20.70
2019-04-29T08:15:07.781Z,20.70
2019-04-29T08:18:16.185Z,20.70
2019-04-29T08:21:21.197Z,20.70
2019-04-29T08:24:26.919Z,20.60
2019-04-29T08:27:39.768Z,20.60
2019-04-29T08:30:41.786Z,20.60
2019-04-29T08:33:48.542Z,20.60
2019-04-29T08:36:54.213Z,20.50
2019-04-29T08:40:15.111Z,20.60
2019-04-29T08:43:29.296Z,20.60
2019-04-29T08:46:44.368Z,20.60
2019-04-29T08:49:47.884Z,20.60
2019-04-29T08:52:53.508Z,20.60
2019-04-29T08:56:00.897Z,20.60
2019-04-29T08:59:06.473Z,20.60
2019-04-29T09:02:13.504Z,20.60
2019-04-29T09:05:19.419Z,20.60
2019-04-29T09:08:28.736Z,20.60
2019-04-29T09:11:32.273Z,20.70
2019-04-29T09:14:37.920Z,20.70
2019-04-29T09:17:43.596Z,20.80
2019-04-29T09:20:49.221Z,20.80
2019-04-29T09:23:54.976Z,20.80
2019-04-29T09:27:14.200Z,20.80
2019-04-29T09:30:20.100Z,20.90
2019-04-29T09:33:25.960Z,20.90
2019-04-29T09:36:32.529Z,20.90
2019-04-29T09:39:43.284Z,20.90
2019-04-29T09:42:59.005Z,20.90
2019-04-29T09:46:11.117Z,20.90
2019-04-29T09:49:16.753Z,20.90
2019-04-29T09:52:22.414Z,20.90
2019-04-29T09:55:28.074Z,20.90
2019-04-29T09:58:35.656Z,20.90
2019-04-29T10:01:50.615Z,20.90
2019-04-29T10:05:13.765Z,21.00
2019-04-29T10:08:19.453Z,20.90
2019-04-29T10:11:25.100Z,21.00
2019-04-29T10:14:30.966Z,21.00
2019-04-29T10:17:58.741Z,21.00
2019-04-29T10:21:10.417Z,21.00
2019-04-29T10:24:16.085Z,21.00
2019-04-29T10:27:23.570Z,21.00
2019-04-29T10:30:31.105Z,21.00
2019-04-29T10:33:38.164Z,21.00
2019-04-29T10:36:45.001Z,21.00
2019-04-29T10:53:46.685Z,21.00
2019-04-29T10:56:52.436Z,21.00
2019-04-29T11:00:04.369Z,21.00
2019-04-29T11:03:10.404Z,21.00
2019-04-29T11:06:17.369Z,21.00
2019-04-29T11:09:50.207Z,21.00
2019-04-29T11:12:53.708Z,21.10
2019-04-29T11:15:59.344Z,21.00
2019-04-29T11:19:06.027Z,21.00
2019-04-29T11:22:13.692Z,21.10
2019-04-29T11:25:41.882Z,21.10
2019-04-29T11:28:51.149Z,21.10
2019-04-29T11:31:58.148Z,21.10
2019-04-29T11:35:10.588Z,21.10
2019-04-29T11:38:16.618Z,21.20
2019-04-29T11:41:23.229Z,21.20
2019-04-29T11:44:31.763Z,21.20
2019-04-29T11:47:36.185Z,21.10
2019-04-29T11:50:55.846Z,21.20
2019-04-29T11:54:02.588Z,21.10
2019-04-29T11:57:10.008Z,21.20
2019-04-29T12:00:33.812Z,21.20
2019-04-29T12:03:41.769Z,21.20
2019-04-29T12:06:51.357Z,21.20
2019-04-29T12:09:56.001Z,21.20
2019-04-29T12:13:03.465Z,21.20
2019-04-29T12:16:14.053Z,21.20
2019-04-29T12:19:25.976Z,21.20
2019-04-29T12:22:47.392Z,21.20
2019-04-29T12:25:42.469Z,21.20
2019-04-29T12:28:48.196Z,21.20
2019-04-29T12:32:13.001Z,21.20
2019-04-29T12:35:51.512Z,21.20
2019-04-29T12:39:06.437Z,21.20
2019-04-29T12:42:44.038Z,21.20
2019-04-29T12:46:11.415Z,21.20
2019-04-29T12:49:17.445Z,21.20
2019-04-29T12:52:23.353Z,21.20
2019-04-29T12:55:44.982Z,21.20
2019-04-29T12:58:50.390Z,21.20
2019-04-29T13:02:19.840Z,21.20
2019-04-29T13:05:43.020Z,21.20
2019-04-29T13:08:54.773Z,21.20
2019-04-29T13:12:17.999Z,21.20
2019-04-29T13:15:15.602Z,21.20
2019-04-29T13:18:40.134Z,21.20
2019-04-29T13:21:45.882Z,21.20
2019-04-29T13:24:51.590Z,21.20
2019-04-29T13:28:03.745Z,21.20
2019-04-29T13:31:04.857Z,21.20
2019-04-29T13:34:23.611Z,21.20
2019-04-29T13:37:22.077Z,21.20
2019-04-29T13:40:27.853Z,21.20
2019-04-29T13:43:35.484Z,21.20
2019-04-29T13:47:00.682Z,21.20
2019-04-29T13:50:18.918Z,21.10
2019-04-29T13:53:19.067Z,21.20
2019-04-29T13:56:34.942Z,21.20
2019-04-29T13:59:59.144Z,21.20
2019-04-29T14:03:13.228Z,21.20
2019-04-29T14:06:19.941Z,21.20
2019-04-29T14:09:25.969Z,21.20
2019-04-29T14:15:40.446Z,21.20
2019-04-29T14:18:48.174Z,21.20
2019-04-29T14:18:53.620Z,21.20
2019-04-29T14:21:54.622Z,21.30
2019-04-29T14:25:00.377Z,21.20
2019-04-29T14:28:07.142Z,21.20
2019-04-29T14:31:12.913Z,21.20
2019-04-29T14:34:34.314Z,21.30
2019-04-29T14:37:37.957Z,21.20
2019-04-29T14:40:43.986Z,21.20
2019-04-29T14:44:15.846Z,21.20
2019-04-29T14:47:47.117Z,21.30
2019-04-29T14:50:54.215Z,21.20
2019-04-29T14:54:01.369Z,21.30
2019-04-29T14:57:09.165Z,21.30
2019-04-29T15:00:30.155Z,21.30
2019-04-29T15:03:52.558Z,21.30
2019-04-29T15:06:59.992Z,21.30
2019-04-29T15:10:07.833Z,21.30
2019-04-29T15:13:21.189Z,21.30
2019-04-29T15:16:45.601Z,21.30
2019-04-29T15:20:07.098Z,21.30
2019-04-29T15:23:12.768Z,21.30
2019-04-29T15:26:20.396Z,21.30
2019-04-29T15:29:25.790Z,21.30
2019-04-29T15:32:31.675Z,21.30
2019-04-29T15:35:37.792Z,21.30
2019-04-29T15:38:48.941Z,21.30
2019-04-29T15:41:54.008Z,21.30
2019-04-29T15:44:58.268Z,21.30
2019-04-29T15:48:03.931Z,21.30
2019-04-29T15:51:13.844Z,21.30
2019-04-29T15:54:18.019Z,21.30
2019-04-29T15:57:24.232Z,21.30
2019-04-29T16:00:36.643Z,21.30
2019-04-29T16:03:39.258Z,21.30
2019-04-29T16:07:06.954Z,21.30
2019-04-29T16:10:30.796Z,21.30
2019-04-29T16:13:37.058Z,21.30
2019-04-29T16:16:43.424Z,21.30
2019-04-29T16:19:49.210Z,21.30
2019-04-29T16:23:00.535Z,21.40
2019-04-29T16:26:02.226Z,21.40
2019-04-29T16:29:13.307Z,21.40
2019-04-29T16:32:25.626Z,21.40
2019-04-29T16:35:34.847Z,21.40
2019-04-29T16:38:39.726Z,21.40
2019-04-29T16:42:13.673Z,21.40
2019-04-29T16:45:21.645Z,21.40
2019-04-29T16:48:28.464Z,21.40
2019-04-29T16:51:34.793Z,21.40
2019-04-29T16:54:40.520Z,21.40
2019-04-29T16:57:46.239Z,21.40
2019-04-29T17:04:05.097Z,21.50
2019-04-29T17:07:13.543Z,21.50
2019-04-29T17:10:25.139Z,21.50
2019-04-29T17:13:30.860Z,21.40
2019-04-29T17:16:36.493Z,21.50
2019-04-29T17:19:43.026Z,21.50
2019-04-29T17:22:48.945Z,21.50
2019-04-29T17:25:54.712Z,21.50
2019-04-29T17:29:38.943Z,21.50
2019-04-29T17:32:52.988Z,21.60
2019-04-29T17:35:19.310Z,21.40
2019-04-29T17:36:06.439Z,21.50
2019-04-29T17:39:14.397Z,21.50
2019-04-29T17:42:21.560Z,21.60
2019-04-29T17:45:36.563Z,21.60
2019-04-29T17:49:01.528Z,21.60
2019-04-29T17:52:15.827Z,21.60
2019-04-29T17:55:47.612Z,21.60
2019-04-29T17:58:58.480Z,21.60
2019-04-29T18:02:26.021Z,21.60
2019-04-29T18:05:52.997Z,21.60
2019-04-29T18:09:11.160Z,21.60
2019-04-29T18:12:21.520Z,21.50
2019-04-29T18:15:40.667Z,21.50
2019-04-29T18:18:57.406Z,21.60
2019-04-29T18:26:36.455Z,21.60
2019-04-29T18:29:43.206Z,21.60
2019-04-29T18:32:49.201Z,21.60
2019-04-29T18:36:03.738Z,21.60
2019-04-29T18:44:54.927Z,21.70
2019-04-29T18:48:16.511Z,21.70
2019-04-29T18:51:20.810Z,21.70
2019-04-29T18:54:25.427Z,21.70
2019-04-29T18:57:32.322Z,21.70
2019-04-29T19:00:39.658Z,21.70
2019-04-29T19:03:55.910Z,21.70
2019-04-29T19:07:02.432Z,21.70
2019-04-29T19:10:14.339Z,21.70
2019-04-29T19:13:16.790Z,21.70
2019-04-29T19:16:23.304Z,21.70
2019-04-29T19:19:30.721Z,21.70
2019-04-29T19:22:39.974Z,21.80
2019-04-29T19:25:46.481Z,21.80
2019-04-29T19:28:51.229Z,21.80
2019-04-29T19:31:58.001Z,21.90
2019-04-29T19:35:03.782Z,22.00
2019-04-29T19:38:12.366Z,22.00
2019-04-29T19:41:18.140Z,22.10
2019-04-29T19:44:26.410Z,22.10
2019-04-29T19:47:33.106Z,22.10
2019-04-29T19:50:39.289Z,22.20
2019-04-29T19:53:49.450Z,22.20
2019-04-29T19:56:55.553Z,22.20
2019-04-29T20:00:02.071Z,22.10
2019-04-29T20:03:20.302Z,22.10
2019-04-29T20:06:25.009Z,22.20
2019-04-29T20:09:27.614Z,22.10
2019-04-29T20:12:31.880Z,22.10
2019-04-29T20:15:45.873Z,22.20
2019-04-29T20:19:20.357Z,22.20
2019-04-29T20:22:23.164Z,22.20
2019-04-29T20:25:37.630Z,22.10
2019-04-29T20:28:37.452Z,22.10
2019-04-29T20:31:48.568Z,22.10
2019-04-29T20:34:50.752Z,22.10
2019-04-29T20:37:59.959Z,22.10
2019-04-29T20:41:06.255Z,22.00
2019-04-29T20:44:11.137Z,22.00
2019-04-29T20:47:23.082Z,22.00
2019-04-29T20:50:25.477Z,22.00
2019-04-29T20:53:40.646Z,22.00
2019-04-29T20:57:12.568Z,22.00
2019-04-29T21:00:13.251Z,22.00
2019-04-29T21:03:27.637Z,22.00
2019-04-29T21:06:26.463Z,21.90
2019-04-29T21:09:32.115Z,22.00
2019-04-29T21:12:59.630Z,21.90
2019-04-29T21:16:15.861Z,21.90
2019-04-29T21:19:21.597Z,21.90
2019-04-29T21:22:27.287Z,21.90
2019-04-29T21:25:32.884Z,21.90
2019-04-29T21:28:41.768Z,21.90
2019-04-29T21:31:50.589Z,21.90
2019-04-29T21:35:02.801Z,21.80
2019-04-29T21:38:39.429Z,21.80
2019-04-29T21:41:58.888Z,21.80
2019-04-29T21:45:08.651Z,21.80
2019-04-29T21:48:12.561Z,21.70
2019-04-29T21:51:18.279Z,21.70
2019-04-29T21:54:24.063Z,21.70
2019-04-29T22:07:55.696Z,21.60
2019-04-29T22:11:05.078Z,21.60
2019-04-29T22:14:09.799Z,21.50
2019-04-29T22:17:16.973Z,21.60
2019-04-29T22:20:22.628Z,21.50
2019-04-29T22:23:28.280Z,21.60
2019-04-29T22:26:35.023Z,21.60
2019-04-29T22:29:40.912Z,21.50
2019-04-29T22:32:47.112Z,21.50
2019-04-29T22:35:55.457Z,21.60
2019-04-29T22:39:01.313Z,21.60
2019-04-29T22:42:27.825Z,21.50
2019-04-29T22:45:35.582Z,21.50
2019-04-29T22:48:45.473Z,21.50
2019-04-29T22:51:49.771Z,21.50
2019-04-29T22:55:01.816Z,21.50
2019-04-29T22:58:09.723Z,21.50
2019-04-29T23:01:15.589Z,21.50
2019-04-29T23:04:22.325Z,21.50
2019-04-29T23:07:29.001Z,21.50
2019-04-29T23:10:35.667Z,21.50
2019-04-29T23:13:41.637Z,21.40
2019-04-29T23:16:47.462Z,21.40
2019-04-29T23:19:57.038Z,21.40
2019-04-29T23:23:07.950Z,21.40
2019-04-29T23:26:14.819Z,21.40
2019-04-29T23:29:21.762Z,21.40
2019-04-29T23:32:27.460Z,21.40
2019-04-29T23:35:34.865Z,21.40
2019-04-29T23:38:42.881Z,21.40
2019-04-29T23:41:47.968Z,21.30
2019-04-29T23:44:55.080Z,21.30
2019-04-29T23:48:00.958Z,21.30
2019-04-29T23:51:06.570Z,21.40
2019-04-29T23:54:12.221Z,21.30
2019-04-29T23:57:37.095Z,21.30
